sensor_id;sensor_type;location;lat;lon;timestamp;pressure;altitude;pressure_sealevel;temperature;humidity
61292;BME280;47165;42.664;23.368;2024-02-14T00:00:10;94734.28;;;8.03;60.09
61292;BME280;47165;42.664;23.368;2024-02-14T00:02:40;94733.59;;;7.99;60.26
61292;BME280;47165;42.664;23.368;2024-02-14T00:05:06;94741.84;;;8.07;60.11
61292;BME280;47165;42.664;23.368;2024-02-14T00:07:32;94740.13;;;7.91;60.51
61292;BME280;47165;42.664;23.368;2024-02-14T00:09:57;94739.94;;;8.11;59.97
61292;BME280;47165;42.664;23.368;2024-02-14T00:12:23;94748.81;;;8.24;59.66
61292;BME280;47165;42.664;23.368;2024-02-14T00:14:50;94748.16;;;8.37;59.26
61292;BME280;47165;42.664;23.368;2024-02-14T00:17:15;94750.06;;;8.00;60.50
61292;BME280;47165;42.664;23.368;2024-02-14T00:19:41;94753.44;;;8.02;60.64
61292;BME280;47165;42.664;23.368;2024-02-14T00:22:06;94743.59;;;8.24;59.63
61292;BME280;47165;42.664;23.368;2024-02-14T00:24:32;94749.75;;;8.39;59.39
61292;BME280;47165;42.664;23.368;2024-02-14T00:26:57;94747.47;;;8.33;59.27
61292;BME280;47165;42.664;23.368;2024-02-14T00:29:23;94750.31;;;8.46;59.08
61292;BME280;47165;42.664;23.368;2024-02-14T00:31:50;94752.91;;;8.46;58.91
61292;BME280;47165;42.664;23.368;2024-02-14T00:34:15;94749.06;;;8.02;60.03
61292;BME280;47165;42.664;23.368;2024-02-14T00:36:41;94744.06;;;8.15;59.64
61292;BME280;47165;42.664;23.368;2024-02-14T00:39:06;94754.66;;;8.12;59.84
61292;BME280;47165;42.664;23.368;2024-02-14T00:41:35;94756.94;;;8.18;59.62
61292;BME280;47165;42.664;23.368;2024-02-14T00:44:01;94751.09;;;8.13;59.57
61292;BME280;47165;42.664;23.368;2024-02-14T00:46:28;94756.44;;;8.27;59.50
61292;BME280;47165;42.664;23.368;2024-02-14T00:48:54;94758.22;;;8.27;59.50
61292;BME280;47165;42.664;23.368;2024-02-14T00:51:21;94743.59;;;8.24;59.38
61292;BME280;47165;42.664;23.368;2024-02-14T00:53:47;94740.56;;;8.16;59.63
61292;BME280;47165;42.664;23.368;2024-02-14T00:56:12;94748.94;;;8.21;59.17
61292;BME280;47165;42.664;23.368;2024-02-14T00:58:38;94755.09;;;8.20;59.84
61292;BME280;47165;42.664;23.368;2024-02-14T01:01:04;94757.50;;;8.23;59.64
61292;BME280;47165;42.664;23.368;2024-02-14T01:03:31;94755.44;;;8.30;59.62
61292;BME280;47165;42.664;23.368;2024-02-14T01:05:57;94762.56;;;8.26;59.54
61292;BME280;47165;42.664;23.368;2024-02-14T01:08:23;94762.75;;;7.89;60.07
61292;BME280;47165;42.664;23.368;2024-02-14T01:10:48;94765.03;;;8.12;60.04
61292;BME280;47165;42.664;23.368;2024-02-14T01:13:19;94760.84;;;7.92;60.15
61292;BME280;47165;42.664;23.368;2024-02-14T01:15:45;94758.00;;;8.14;59.59
61292;BME280;47165;42.664;23.368;2024-02-14T01:18:10;94752.81;;;8.14;59.87
61292;BME280;47165;42.664;23.368;2024-02-14T01:20:36;94771.50;;;7.88;60.62
61292;BME280;47165;42.664;23.368;2024-02-14T01:23:03;94759.00;;;7.77;60.77
61292;BME280;47165;42.664;23.368;2024-02-14T01:25:28;94761.06;;;8.05;60.26
61292;BME280;47165;42.664;23.368;2024-02-14T01:27:54;94757.88;;;8.00;60.22
61292;BME280;47165;42.664;23.368;2024-02-14T01:30:19;94764.50;;;8.05;60.11
61292;BME280;47165;42.664;23.368;2024-02-14T01:32:45;94756.03;;;7.84;60.02
61292;BME280;47165;42.664;23.368;2024-02-14T01:35:10;94757.88;;;7.82;60.36
61292;BME280;47165;42.664;23.368;2024-02-14T01:37:36;94746.59;;;7.99;60.22
61292;BME280;47165;42.664;23.368;2024-02-14T01:40:01;94755.16;;;8.01;60.08
61292;BME280;47165;42.664;23.368;2024-02-14T01:42:27;94754.66;;;7.77;60.66
61292;BME280;47165;42.664;23.368;2024-02-14T01:44:53;94753.16;;;7.73;60.79
61292;BME280;47165;42.664;23.368;2024-02-14T01:47:21;94761.84;;;7.90;59.97
61292;BME280;47165;42.664;23.368;2024-02-14T01:49:47;94766.34;;;7.86;60.29
61292;BME280;47165;42.664;23.368;2024-02-14T01:52:13;94757.47;;;8.07;59.60
61292;BME280;47165;42.664;23.368;2024-02-14T01:54:39;94759.16;;;7.91;60.20
61292;BME280;47165;42.664;23.368;2024-02-14T01:57:06;94753.16;;;7.73;60.22
61292;BME280;47165;42.664;23.368;2024-02-14T01:59:33;94769.41;;;7.94;60.03
61292;BME280;47165;42.664;23.368;2024-02-14T02:02:02;94756.41;;;7.94;59.86
61292;BME280;47165;42.664;23.368;2024-02-14T02:04:28;94767.25;;;7.85;60.27
61292;BME280;47165;42.664;23.368;2024-02-14T02:06:53;94768.59;;;7.94;59.53
61292;BME280;47165;42.664;23.368;2024-02-14T02:09:22;94762.66;;;8.07;59.17
61292;BME280;47165;42.664;23.368;2024-02-14T02:11:49;94768.88;;;8.05;59.25
61292;BME280;47165;42.664;23.368;2024-02-14T02:14:15;94758.63;;;8.02;59.50
61292;BME280;47165;42.664;23.368;2024-02-14T02:16:41;94759.91;;;7.93;59.31
61292;BME280;47165;42.664;23.368;2024-02-14T02:19:07;94772.09;;;8.10;59.14
61292;BME280;47165;42.664;23.368;2024-02-14T02:21:38;94774.13;;;8.21;58.78
61292;BME280;47165;42.664;23.368;2024-02-14T02:24:04;94774.06;;;8.05;58.77
61292;BME280;47165;42.664;23.368;2024-02-14T02:26:30;94776.66;;;8.05;58.63
61292;BME280;47165;42.664;23.368;2024-02-14T02:28:55;94769.47;;;7.93;58.99
61292;BME280;47165;42.664;23.368;2024-02-14T02:31:21;94774.38;;;7.99;59.28
61292;BME280;47165;42.664;23.368;2024-02-14T02:33:47;94776.09;;;8.16;58.64
61292;BME280;47165;42.664;23.368;2024-02-14T02:36:12;94776.97;;;8.16;58.29
61292;BME280;47165;42.664;23.368;2024-02-14T02:38:38;94775.31;;;7.98;58.41
61292;BME280;47165;42.664;23.368;2024-02-14T02:41:04;94774.38;;;7.99;58.65
61292;BME280;47165;42.664;23.368;2024-02-14T02:43:33;94783.00;;;7.99;58.50
61292;BME280;47165;42.664;23.368;2024-02-14T02:45:58;94768.78;;;7.89;58.75
61292;BME280;47165;42.664;23.368;2024-02-14T02:48:24;94784.78;;;7.81;58.99
61292;BME280;47165;42.664;23.368;2024-02-14T02:50:50;94790.44;;;7.72;59.06
61292;BME280;47165;42.664;23.368;2024-02-14T02:53:16;94801.28;;;7.63;59.47
61292;BME280;47165;42.664;23.368;2024-02-14T02:55:42;94795.94;;;7.83;59.27
61292;BME280;47165;42.664;23.368;2024-02-14T02:58:08;94803.75;;;8.01;58.47
61292;BME280;47165;42.664;23.368;2024-02-14T03:00:33;94790.66;;;8.02;58.03
61292;BME280;47165;42.664;23.368;2024-02-14T03:02:59;94802.44;;;8.10;58.25
61292;BME280;47165;42.664;23.368;2024-02-14T03:05:25;94800.13;;;8.03;58.48
61292;BME280;47165;42.664;23.368;2024-02-14T03:07:50;94806.28;;;8.02;58.35
61292;BME280;47165;42.664;23.368;2024-02-14T03:10:18;94812.53;;;7.98;58.04
61292;BME280;47165;42.664;23.368;2024-02-14T03:12:48;94815.81;;;7.84;58.49
61292;BME280;47165;42.664;23.368;2024-02-14T03:15:14;94804.44;;;8.04;58.15
61292;BME280;47165;42.664;23.368;2024-02-14T03:17:40;94803.13;;;8.13;57.73
61292;BME280;47165;42.664;23.368;2024-02-14T03:20:08;94823.69;;;8.00;57.74
61292;BME280;47165;42.664;23.368;2024-02-14T03:22:43;94826.06;;;7.88;57.92
61292;BME280;47165;42.664;23.368;2024-02-14T03:25:18;94823.94;;;7.96;57.62
61292;BME280;47165;42.664;23.368;2024-02-14T03:27:44;94831.19;;;7.89;57.94
61292;BME280;47165;42.664;23.368;2024-02-14T03:30:12;94828.50;;;7.91;57.71
61292;BME280;47165;42.664;23.368;2024-02-14T03:32:38;94840.53;;;8.11;57.75
61292;BME280;47165;42.664;23.368;2024-02-14T03:35:04;94838.91;;;7.91;57.56
61292;BME280;47165;42.664;23.368;2024-02-14T03:37:30;94854.13;;;7.98;57.62
61292;BME280;47165;42.664;23.368;2024-02-14T03:39:55;94846.09;;;7.85;58.09
61292;BME280;47165;42.664;23.368;2024-02-14T03:42:21;94842.66;;;8.02;57.56
61292;BME280;47165;42.664;23.368;2024-02-14T03:44:46;94852.66;;;7.93;57.83
61292;BME280;47165;42.664;23.368;2024-02-14T03:47:12;94850.53;;;8.01;57.49
61292;BME280;47165;42.664;23.368;2024-02-14T03:49:41;94857.44;;;8.02;57.27
61292;BME280;47165;42.664;23.368;2024-02-14T03:52:06;94854.38;;;8.11;56.80
61292;BME280;47165;42.664;23.368;2024-02-14T03:54:37;94848.09;;;8.15;56.77
61292;BME280;47165;42.664;23.368;2024-02-14T03:57:03;94859.28;;;8.00;57.20
61292;BME280;47165;42.664;23.368;2024-02-14T03:59:35;94853.28;;;7.80;57.17
61292;BME280;47165;42.664;23.368;2024-02-14T04:02:01;94857.63;;;7.97;57.24
61292;BME280;47165;42.664;23.368;2024-02-14T04:04:26;94860.41;;;8.12;56.73
61292;BME280;47165;42.664;23.368;2024-02-14T04:06:52;94859.56;;;7.94;56.72
61292;BME280;47165;42.664;23.368;2024-02-14T04:09:17;94874.22;;;7.77;57.37
61292;BME280;47165;42.664;23.368;2024-02-14T04:11:43;94864.41;;;7.65;57.36
61292;BME280;47165;42.664;23.368;2024-02-14T04:14:08;94871.16;;;7.69;57.62
61292;BME280;47165;42.664;23.368;2024-02-14T04:16:34;94869.28;;;7.90;57.13
61292;BME280;47165;42.664;23.368;2024-02-14T04:19:02;94870.41;;;7.84;57.10
61292;BME280;47165;42.664;23.368;2024-02-14T04:21:28;94884.47;;;7.80;57.34
61292;BME280;47165;42.664;23.368;2024-02-14T04:23:54;94877.00;;;7.92;56.83
61292;BME280;47165;42.664;23.368;2024-02-14T04:26:20;94877.22;;;8.04;56.74
61292;BME280;47165;42.664;23.368;2024-02-14T04:28:46;94874.69;;;8.03;56.52
61292;BME280;47165;42.664;23.368;2024-02-14T04:31:11;94889.22;;;8.07;56.63
61292;BME280;47165;42.664;23.368;2024-02-14T04:33:37;94883.88;;;7.93;56.38
61292;BME280;47165;42.664;23.368;2024-02-14T04:38:30;94907.25;;;7.75;57.06
61292;BME280;47165;42.664;23.368;2024-02-14T04:40:56;94888.09;;;7.59;57.63
61292;BME280;47165;42.664;23.368;2024-02-14T04:43:22;94894.38;;;7.72;57.51
61292;BME280;47165;42.664;23.368;2024-02-14T04:45:47;94898.94;;;7.86;57.07
61292;BME280;47165;42.664;23.368;2024-02-14T04:48:13;94897.22;;;7.85;57.12
61292;BME280;47165;42.664;23.368;2024-02-14T04:50:39;94906.06;;;8.00;56.89
61292;BME280;47165;42.664;23.368;2024-02-14T04:53:04;94908.84;;;8.14;56.54
61292;BME280;47165;42.664;23.368;2024-02-14T04:55:30;94910.66;;;8.12;56.15
61292;BME280;47165;42.664;23.368;2024-02-14T04:57:55;94902.56;;;8.18;56.15
61292;BME280;47165;42.664;23.368;2024-02-14T05:00:21;94912.56;;;8.09;56.29
61292;BME280;47165;42.664;23.368;2024-02-14T05:02:46;94919.84;;;8.19;56.37
61292;BME280;47165;42.664;23.368;2024-02-14T05:05:12;94919.25;;;8.14;56.32
61292;BME280;47165;42.664;23.368;2024-02-14T05:07:37;94918.38;;;8.14;56.32
61292;BME280;47165;42.664;23.368;2024-02-14T05:10:03;94921.13;;;8.28;56.18
61292;BME280;47165;42.664;23.368;2024-02-14T05:12:29;94922.66;;;8.32;55.88
61292;BME280;47165;42.664;23.368;2024-02-14T05:14:54;94937.16;;;8.38;55.71
61292;BME280;47165;42.664;23.368;2024-02-14T05:17:20;94934.06;;;8.12;56.25
61292;BME280;47165;42.664;23.368;2024-02-14T05:19:45;94943.25;;;8.19;55.98
61292;BME280;47165;42.664;23.368;2024-02-14T05:22:11;94936.50;;;8.15;56.33
61292;BME280;47165;42.664;23.368;2024-02-14T05:24:36;94943.13;;;8.03;56.43
61292;BME280;47165;42.664;23.368;2024-02-14T05:27:04;94945.97;;;7.99;56.76
61292;BME280;47165;42.664;23.368;2024-02-14T05:29:29;94953.84;;;7.97;56.91
61292;BME280;47165;42.664;23.368;2024-02-14T05:31:55;94953.25;;;8.10;56.47
61292;BME280;47165;42.664;23.368;2024-02-14T05:34:21;94959.72;;;8.01;56.65
61292;BME280;47165;42.664;23.368;2024-02-14T05:36:46;94962.97;;;8.06;56.77
61292;BME280;47165;42.664;23.368;2024-02-14T05:39:12;94976.84;;;7.88;56.78
61292;BME280;47165;42.664;23.368;2024-02-14T05:41:39;94975.00;;;7.71;57.21
61292;BME280;47165;42.664;23.368;2024-02-14T05:44:05;94985.91;;;7.41;57.99
61292;BME280;47165;42.664;23.368;2024-02-14T05:46:31;94986.44;;;7.66;57.99
61292;BME280;47165;42.664;23.368;2024-02-14T05:48:56;94988.88;;;7.71;57.33
61292;BME280;47165;42.664;23.368;2024-02-14T05:51:23;94987.31;;;7.86;57.33
61292;BME280;47165;42.664;23.368;2024-02-14T05:53:49;94994.91;;;7.72;57.28
61292;BME280;47165;42.664;23.368;2024-02-14T05:56:14;95000.03;;;7.73;57.12
61292;BME280;47165;42.664;23.368;2024-02-14T05:58:40;94996.78;;;7.87;56.69
61292;BME280;47165;42.664;23.368;2024-02-14T06:01:05;95000.00;;;7.92;56.58
61292;BME280;47165;42.664;23.368;2024-02-14T06:03:32;95010.06;;;8.00;56.01
61292;BME280;47165;42.664;23.368;2024-02-14T06:05:57;95003.66;;;8.07;55.72
61292;BME280;47165;42.664;23.368;2024-02-14T06:08:23;95011.31;;;8.10;55.64
61292;BME280;47165;42.664;23.368;2024-02-14T06:10:52;95015.47;;;7.95;55.83
61292;BME280;47165;42.664;23.368;2024-02-14T06:13:18;95018.47;;;8.05;56.05
61292;BME280;47165;42.664;23.368;2024-02-14T06:15:44;95020.75;;;7.94;55.94
61292;BME280;47165;42.664;23.368;2024-02-14T06:18:09;95019.06;;;7.93;55.90
61292;BME280;47165;42.664;23.368;2024-02-14T06:20:36;95030.78;;;7.63;56.07
61292;BME280;47165;42.664;23.368;2024-02-14T06:23:04;95028.34;;;7.79;55.87
61292;BME280;47165;42.664;23.368;2024-02-14T06:25:30;95024.91;;;7.98;55.26
61292;BME280;47165;42.664;23.368;2024-02-14T06:27:55;95020.53;;;7.98;55.43
61292;BME280;47165;42.664;23.368;2024-02-14T06:30:22;95037.59;;;7.85;55.26
61292;BME280;47165;42.664;23.368;2024-02-14T06:32:47;95045.75;;;7.77;55.37
61292;BME280;47165;42.664;23.368;2024-02-14T06:35:13;95040.69;;;7.55;57.18
61292;BME280;47165;42.664;23.368;2024-02-14T06:37:40;95042.94;;;7.63;57.60
61292;BME280;47165;42.664;23.368;2024-02-14T06:40:05;95043.63;;;7.66;57.10
61292;BME280;47165;42.664;23.368;2024-02-14T06:42:34;95047.28;;;7.62;56.89
61292;BME280;47165;42.664;23.368;2024-02-14T06:45:00;95045.31;;;7.86;56.67
61292;BME280;47165;42.664;23.368;2024-02-14T06:47:25;95059.59;;;7.97;56.04
61292;BME280;47165;42.664;23.368;2024-02-14T06:49:55;95059.09;;;7.89;54.86
61292;BME280;47165;42.664;23.368;2024-02-14T06:52:21;95062.47;;;7.91;55.09
61292;BME280;47165;42.664;23.368;2024-02-14T06:54:46;95060.31;;;8.00;55.12
61292;BME280;47165;42.664;23.368;2024-02-14T06:57:13;95057.44;;;7.88;54.65
61292;BME280;47165;42.664;23.368;2024-02-14T06:59:40;95070.22;;;7.92;54.42
61292;BME280;47165;42.664;23.368;2024-02-14T07:02:06;95067.53;;;7.94;54.22
61292;BME280;47165;42.664;23.368;2024-02-14T07:04:32;95073.44;;;7.97;54.19
61292;BME280;47165;42.664;23.368;2024-02-14T07:06:58;95066.84;;;8.09;54.06
61292;BME280;47165;42.664;23.368;2024-02-14T07:09:23;95069.22;;;7.95;53.88
61292;BME280;47165;42.664;23.368;2024-02-14T07:11:50;95074.69;;;7.89;53.89
61292;BME280;47165;42.664;23.368;2024-02-14T07:14:16;95078.44;;;8.02;53.78
61292;BME280;47165;42.664;23.368;2024-02-14T07:16:41;95082.31;;;8.12;53.74
61292;BME280;47165;42.664;23.368;2024-02-14T07:19:07;95084.53;;;8.01;53.18
61292;BME280;47165;42.664;23.368;2024-02-14T07:21:32;95086.38;;;7.99;53.35
61292;BME280;47165;42.664;23.368;2024-02-14T07:23:58;95085.25;;;7.85;53.67
61292;BME280;47165;42.664;23.368;2024-02-14T07:26:24;95085.59;;;7.97;53.63
61292;BME280;47165;42.664;23.368;2024-02-14T07:28:49;95086.53;;;7.96;53.14
61292;BME280;47165;42.664;23.368;2024-02-14T07:31:15;95090.84;;;7.95;53.37
61292;BME280;47165;42.664;23.368;2024-02-14T07:33:40;95087.28;;;8.17;52.92
61292;BME280;47165;42.664;23.368;2024-02-14T07:36:06;95088.31;;;8.32;52.43
61292;BME280;47165;42.664;23.368;2024-02-14T07:38:32;95086.78;;;8.27;52.16
61292;BME280;47165;42.664;23.368;2024-02-14T07:40:57;95094.59;;;8.27;51.89
61292;BME280;47165;42.664;23.368;2024-02-14T07:43:22;95090.72;;;8.17;51.78
61292;BME280;47165;42.664;23.368;2024-02-14T07:45:48;95104.78;;;8.13;51.84
61292;BME280;47165;42.664;23.368;2024-02-14T07:48:14;95100.63;;;8.09;51.79
61292;BME280;47165;42.664;23.368;2024-02-14T07:50:39;95108.88;;;8.00;52.06
61292;BME280;47165;42.664;23.368;2024-02-14T07:53:05;95100.84;;;8.04;52.29
61292;BME280;47165;42.664;23.368;2024-02-14T07:55:31;95111.97;;;8.08;51.88
61292;BME280;47165;42.664;23.368;2024-02-14T07:57:57;95113.69;;;8.07;52.04
61292;BME280;47165;42.664;23.368;2024-02-14T08:00:22;95104.78;;;8.13;52.04
61292;BME280;47165;42.664;23.368;2024-02-14T08:02:49;95113.00;;;8.23;51.86
61292;BME280;47165;42.664;23.368;2024-02-14T08:05:14;95109.47;;;7.86;52.59
61292;BME280;47165;42.664;23.368;2024-02-14T08:07:40;95102.72;;;7.82;52.96
61292;BME280;47165;42.664;23.368;2024-02-14T08:10:05;95124.75;;;7.94;53.08
61292;BME280;47165;42.664;23.368;2024-02-14T08:12:31;95125.09;;;7.65;53.23
61292;BME280;47165;42.664;23.368;2024-02-14T08:17:28;95120.94;;;8.01;52.77
61292;BME280;47165;42.664;23.368;2024-02-14T08:19:53;95133.88;;;8.02;52.87
61292;BME280;47165;42.664;23.368;2024-02-14T08:22:19;95116.50;;;7.84;52.43
61292;BME280;47165;42.664;23.368;2024-02-14T08:24:44;95125.28;;;7.81;52.48
61292;BME280;47165;42.664;23.368;2024-02-14T08:27:10;95135.75;;;7.80;52.51
61292;BME280;47165;42.664;23.368;2024-02-14T08:29:36;95138.28;;;7.81;52.52
61292;BME280;47165;42.664;23.368;2024-02-14T08:32:01;95141.81;;;7.60;53.03
61292;BME280;47165;42.664;23.368;2024-02-14T08:34:28;95140.44;;;7.72;52.94
61292;BME280;47165;42.664;23.368;2024-02-14T08:36:54;95133.16;;;7.80;52.18
61292;BME280;47165;42.664;23.368;2024-02-14T08:39:20;95140.72;;;7.84;52.17
61292;BME280;47165;42.664;23.368;2024-02-14T08:41:46;95139.63;;;7.90;52.19
61292;BME280;47165;42.664;23.368;2024-02-14T08:44:12;95135.69;;;7.81;51.96
61292;BME280;47165;42.664;23.368;2024-02-14T08:46:38;95155.34;;;7.87;51.85
61292;BME280;47165;42.664;23.368;2024-02-14T08:49:04;95153.72;;;7.84;51.56
61292;BME280;47165;42.664;23.368;2024-02-14T08:51:37;95162.56;;;7.80;51.48
61292;BME280;47165;42.664;23.368;2024-02-14T08:54:04;95161.78;;;7.78;51.82
61292;BME280;47165;42.664;23.368;2024-02-14T08:56:33;95156.53;;;7.80;51.62
61292;BME280;47165;42.664;23.368;2024-02-14T08:59:02;95170.81;;;7.90;51.50
61292;BME280;47165;42.664;23.368;2024-02-14T09:01:29;95157.44;;;7.79;51.64
61292;BME280;47165;42.664;23.368;2024-02-14T09:03:54;95169.03;;;7.72;51.81
61292;BME280;47165;42.664;23.368;2024-02-14T09:06:21;95153.63;;;7.67;51.64
61292;BME280;47165;42.664;23.368;2024-02-14T09:08:47;95175.97;;;7.71;51.97
61292;BME280;47165;42.664;23.368;2024-02-14T09:11:13;95152.59;;;7.71;51.67
61292;BME280;47165;42.664;23.368;2024-02-14T09:13:38;95163.09;;;7.68;51.99
61292;BME280;47165;42.664;23.368;2024-02-14T09:16:08;95176.25;;;7.44;52.37
61292;BME280;47165;42.664;23.368;2024-02-14T09:18:34;95170.13;;;7.45;52.27
61292;BME280;47165;42.664;23.368;2024-02-14T09:21:00;95170.19;;;7.44;52.78
61292;BME280;47165;42.664;23.368;2024-02-14T09:23:26;95180.16;;;7.55;52.66
61292;BME280;47165;42.664;23.368;2024-02-14T09:25:52;95180.66;;;7.63;52.66
61292;BME280;47165;42.664;23.368;2024-02-14T09:28:17;95182.03;;;7.72;52.46
61292;BME280;47165;42.664;23.368;2024-02-14T09:30:44;95187.06;;;7.75;52.64
61292;BME280;47165;42.664;23.368;2024-02-14T09:33:09;95182.31;;;7.23;53.29
61292;BME280;47165;42.664;23.368;2024-02-14T09:35:34;95183.56;;;7.35;53.70
61292;BME280;47165;42.664;23.368;2024-02-14T09:38:03;95180.00;;;7.37;53.54
61292;BME280;47165;42.664;23.368;2024-02-14T09:40:28;95181.56;;;7.41;53.58
61292;BME280;47165;42.664;23.368;2024-02-14T09:42:54;95198.91;;;7.41;53.71
61292;BME280;47165;42.664;23.368;2024-02-14T09:45:27;95191.88;;;7.43;54.12
61292;BME280;47165;42.664;23.368;2024-02-14T09:47:53;95171.19;;;7.19;53.90
61292;BME280;47165;42.664;23.368;2024-02-14T09:50:22;95183.31;;;7.41;53.91
61292;BME280;47165;42.664;23.368;2024-02-14T09:52:49;95182.47;;;7.61;53.62
61292;BME280;47165;42.664;23.368;2024-02-14T09:55:15;95171.56;;;7.53;53.16
61292;BME280;47165;42.664;23.368;2024-02-14T09:57:42;95168.63;;;7.60;53.04
61292;BME280;47165;42.664;23.368;2024-02-14T10:00:11;95169.66;;;7.56;52.87
61292;BME280;47165;42.664;23.368;2024-02-14T10:02:38;95171.75;;;7.48;53.07
61292;BME280;47165;42.664;23.368;2024-02-14T10:05:03;95176.63;;;7.56;53.05
61292;BME280;47165;42.664;23.368;2024-02-14T10:07:29;95179.22;;;7.56;53.29
61292;BME280;47165;42.664;23.368;2024-02-14T10:10:05;95187.41;;;7.47;52.92
61292;BME280;47165;42.664;23.368;2024-02-14T10:12:32;95175.91;;;7.52;53.02
61292;BME280;47165;42.664;23.368;2024-02-14T10:14:59;95181.72;;;7.59;52.63
61292;BME280;47165;42.664;23.368;2024-02-14T10:17:26;95175.97;;;7.71;52.61
61292;BME280;47165;42.664;23.368;2024-02-14T10:19:57;95188.03;;;7.93;52.29
61292;BME280;47165;42.664;23.368;2024-02-14T10:22:23;95181.78;;;7.97;51.83
61292;BME280;47165;42.664;23.368;2024-02-14T10:24:50;95171.13;;;8.03;51.47
61292;BME280;47165;42.664;23.368;2024-02-14T10:27:16;95175.19;;;7.90;51.43
61292;BME280;47165;42.664;23.368;2024-02-14T10:29:42;95164.53;;;7.96;51.00
61292;BME280;47165;42.664;23.368;2024-02-14T10:32:10;95180.47;;;8.07;50.95
61292;BME280;47165;42.664;23.368;2024-02-14T10:34:37;95165.59;;;8.11;50.48
61292;BME280;47165;42.664;23.368;2024-02-14T10:37:03;95170.44;;;8.18;50.11
61292;BME280;47165;42.664;23.368;2024-02-14T10:39:32;95167.19;;;8.13;50.57
61292;BME280;47165;42.664;23.368;2024-02-14T10:41:58;95169.47;;;8.21;50.28
61292;BME280;47165;42.664;23.368;2024-02-14T10:44:24;95164.88;;;8.26;50.40
61292;BME280;47165;42.664;23.368;2024-02-14T10:46:52;95162.50;;;8.40;49.84
61292;BME280;47165;42.664;23.368;2024-02-14T10:49:21;95167.66;;;8.42;49.60
61292;BME280;47165;42.664;23.368;2024-02-14T10:51:51;95167.25;;;8.51;49.48
61292;BME280;47165;42.664;23.368;2024-02-14T10:54:19;95155.78;;;8.55;49.21
61292;BME280;47165;42.664;23.368;2024-02-14T10:56:49;95170.34;;;8.59;48.70
61292;BME280;47165;42.664;23.368;2024-02-14T10:59:18;95155.25;;;8.28;49.00
61292;BME280;47165;42.664;23.368;2024-02-14T11:01:45;95172.69;;;8.26;49.40
61292;BME280;47165;42.664;23.368;2024-02-14T11:04:11;95168.19;;;8.30;49.08
61292;BME280;47165;42.664;23.368;2024-02-14T11:06:52;95169.53;;;8.38;48.92
61292;BME280;47165;42.664;23.368;2024-02-14T11:09:36;95166.97;;;8.18;48.63
61292;BME280;47165;42.664;23.368;2024-02-14T11:12:01;95172.00;;;8.22;48.63
61292;BME280;47165;42.664;23.368;2024-02-14T11:14:31;95168.34;;;8.26;48.52
61292;BME280;47165;42.664;23.368;2024-02-14T11:16:59;95170.72;;;8.31;48.50
61292;BME280;47165;42.664;23.368;2024-02-14T11:19:35;95170.19;;;8.24;48.71
61292;BME280;47165;42.664;23.368;2024-02-14T11:22:12;95167.09;;;8.35;48.48
61292;BME280;47165;42.664;23.368;2024-02-14T11:24:40;95169.63;;;8.37;48.09
61292;BME280;47165;42.664;23.368;2024-02-14T11:27:12;95174.56;;;8.43;48.06
61292;BME280;47165;42.664;23.368;2024-02-14T11:29:39;95164.41;;;8.37;48.08
61292;BME280;47165;42.664;23.368;2024-02-14T11:32:06;95177.03;;;8.46;48.38
61292;BME280;47165;42.664;23.368;2024-02-14T11:34:34;95173.66;;;8.44;48.21
61292;BME280;47165;42.664;23.368;2024-02-14T11:37:00;95177.25;;;8.41;47.92
61292;BME280;47165;42.664;23.368;2024-02-14T11:39:26;95171.28;;;8.38;48.24
61292;BME280;47165;42.664;23.368;2024-02-14T11:41:51;95173.13;;;8.36;48.13
61292;BME280;47165;42.664;23.368;2024-02-14T11:44:19;95171.81;;;8.46;48.28
61292;BME280;47165;42.664;23.368;2024-02-14T11:46:45;95169.47;;;8.40;48.20
61292;BME280;47165;42.664;23.368;2024-02-14T11:49:11;95174.41;;;8.46;48.24
61292;BME280;47165;42.664;23.368;2024-02-14T11:51:37;95168.34;;;8.26;48.60
61292;BME280;47165;42.664;23.368;2024-02-14T11:54:04;95166.63;;;8.46;48.50
61292;BME280;47165;42.664;23.368;2024-02-14T11:56:31;95170.41;;;8.39;48.54
61292;BME280;47165;42.664;23.368;2024-02-14T11:59:06;95169.91;;;8.31;48.62
61292;BME280;47165;42.664;23.368;2024-02-14T12:01:34;95170.19;;;8.24;48.52
61292;BME280;47165;42.664;23.368;2024-02-14T12:04:00;95169.53;;;8.19;48.63
61292;BME280;47165;42.664;23.368;2024-02-14T12:06:28;95154.56;;;8.24;48.37
61292;BME280;47165;42.664;23.368;2024-02-14T12:08:54;95164.88;;;8.26;48.15
61292;BME280;47165;42.664;23.368;2024-02-14T12:11:21;95182.84;;;7.93;48.65
61292;BME280;47165;42.664;23.368;2024-02-14T12:13:50;95164.44;;;7.97;49.08
61292;BME280;47165;42.664;23.368;2024-02-14T12:16:15;95159.03;;;8.02;48.86
61292;BME280;47165;42.664;23.368;2024-02-14T12:18:41;95161.53;;;7.84;49.48
61292;BME280;47165;42.664;23.368;2024-02-14T12:21:07;95153.06;;;8.00;49.19
61292;BME280;47165;42.664;23.368;2024-02-14T12:23:33;95163.44;;;8.20;48.97
61292;BME280;47165;42.664;23.368;2024-02-14T12:26:03;95155.41;;;8.06;48.88
61292;BME280;47165;42.664;23.368;2024-02-14T12:28:29;95150.47;;;8.00;49.17
61292;BME280;47165;42.664;23.368;2024-02-14T12:30:56;95149.91;;;8.12;49.03
61292;BME280;47165;42.664;23.368;2024-02-14T12:33:23;95156.09;;;8.10;49.05
61292;BME280;47165;42.664;23.368;2024-02-14T12:35:50;95150.25;;;8.23;48.81
61292;BME280;47165;42.664;23.368;2024-02-14T12:38:17;95139.81;;;8.25;48.57
61292;BME280;47165;42.664;23.368;2024-02-14T12:40:43;95142.75;;;8.36;48.62
61292;BME280;47165;42.664;23.368;2024-02-14T12:43:10;95147.66;;;8.23;48.77
61292;BME280;47165;42.664;23.368;2024-02-14T12:45:37;95155.84;;;8.35;48.44
61292;BME280;47165;42.664;23.368;2024-02-14T12:48:04;95151.75;;;8.10;48.75
61292;BME280;47165;42.664;23.368;2024-02-14T12:50:32;95145.56;;;8.32;48.81
61292;BME280;47165;42.664;23.368;2024-02-14T12:52:58;95153.16;;;8.36;48.40
61292;BME280;47165;42.664;23.368;2024-02-14T12:55:24;95144.00;;;8.09;48.81
61292;BME280;47165;42.664;23.368;2024-02-14T12:57:51;95159.13;;;8.38;48.54
61292;BME280;47165;42.664;23.368;2024-02-14T13:00:18;95159.50;;;8.31;48.05